Time;durP1;ratioP1;P1;durP2;ratioP2;P2;SDS_P1;SDS_P2;PMS_P1;PMS_P2;Temp;Humidity;BMP_temperature;BMP_pressure;BME280_temperature;BME280_humidity;BME280_pressure;Samples;Min_cycle;Max_cycle;Signal;HPM_P1;HPM_P2
2022/10/02 00:00:07;;;;;;;24.50;18.63;;;;;;;11.47;96.62;100223.84;5094052;28;20027;-71
2022/10/02 00:02:57;;;;;;;27.35;19.20;;;;;;;11.48;96.53;100231.78;5093590;28;20027;-72
2022/10/02 00:05:29;;;;;;;25.45;19.70;;;;;;;11.49;96.72;100222.72;5079944;28;20150;-74
2022/10/02 00:07:59;;;;;;;25.67;18.85;;;;;;;11.48;96.53;100229.09;5112604;28;20388;-73
2022/10/02 00:10:43;;;;;;;24.40;19.48;;;;;;;11.48;96.09;100222.84;5112585;28;20070;-73
2022/10/02 00:13:19;;;;;;;25.67;17.95;;;;;;;11.54;95.96;100228.50;5094086;28;20083;-74
2022/10/02 00:15:46;;;;;;;27.02;17.10;;;;;;;11.55;95.67;100227.53;5112476;28;20032;-71
2022/10/02 00:18:19;;;;;;;20.23;17.77;;;;;;;11.47;95.92;100219.31;5112266;28;20392;-72
2022/10/02 00:21:04;;;;;;;25.60;19.50;;;;;;;11.47;96.44;100222.00;5093884;28;20027;-73
2022/10/02 00:23:38;;;;;;;26.63;19.58;;;;;;;11.48;96.15;100215.63;5094093;28;20046;-72
2022/10/02 00:26:15;;;;;;;21.40;18.67;;;;;;;11.56;95.68;100223.84;5111886;28;20492;-72
2022/10/02 00:28:59;;;;;;;20.48;17.05;;;;;;;11.61;95.44;100218.91;5112126;28;20027;-71
2022/10/02 00:31:30;;;;;;;21.58;17.20;;;;;;;11.61;95.75;100226.97;5097312;28;20028;-73
2022/10/02 00:33:58;;;;;;;21.55;15.15;;;;;;;11.66;95.39;100224.69;5097826;28;20028;-73
2022/10/02 00:36:38;;;;;;;21.13;15.70;;;;;;;11.70;94.44;100218.03;5116163;28;20547;-70
2022/10/02 00:39:19;;;;;;;17.98;14.88;;;;;;;11.79;94.39;100220.91;5097361;28;20039;-70
2022/10/02 00:42:19;;;;;;;21.52;16.40;;;;;;;11.79;93.90;100218.19;5096972;28;20034;-72
2022/10/02 00:45:33;;;;;;;20.45;15.10;;;;;;;11.77;94.38;100215.63;5097441;28;20031;-72
2022/10/02 00:48:23;;;;;;;23.75;16.45;;;;;;;11.76;94.73;100216.63;5109725;28;20418;-71
2022/10/02 00:51:08;;;;;;;22.08;15.50;;;;;;;11.69;94.39;100202.84;5097402;28;20027;-71
2022/10/02 00:53:55;;;;;;;23.00;16.23;;;;;;;11.78;94.67;100205.69;5115226;28;20044;-72
2022/10/02 00:56:43;;;;;;;20.65;16.45;;;;;;;11.83;94.15;100204.28;5115220;28;20419;-71
2022/10/02 00:59:29;;;;;;;22.50;16.92;;;;;;;11.83;94.02;100215.06;5097048;28;20032;-72
2022/10/02 01:01:59;;;;;;;25.17;18.00;;;;;;;11.79;94.60;100212.81;5115301;28;20067;-73
2022/10/02 01:04:31;;;;;;;26.75;19.40;;;;;;;11.75;94.75;100210.34;5096635;28;20058;-70
2022/10/02 01:06:57;;;;;;;25.60;17.80;;;;;;;11.70;95.20;100212.63;5114795;28;20100;-71
2022/10/02 01:09:24;;;;;;;20.98;16.05;;;;;;;11.70;95.38;100207.25;5115244;28;20480;-71
2022/10/02 01:11:51;;;;;;;23.10;17.90;;;;;;;11.70;95.21;100201.00;5096857;28;20034;-71
2022/10/02 01:14:17;;;;;;;19.63;16.50;;;;;;;11.70;94.77;100201.88;5115044;28;20039;-70
2022/10/02 01:16:44;;;;;;;22.25;16.38;;;;;;;11.69;95.45;100202.00;5096562;28;20023;-70
2022/10/02 01:19:29;;;;;;;22.23;15.88;;;;;;;11.79;95.02;100202.88;5114533;28;20031;-70
2022/10/02 01:22:15;;;;;;;21.65;16.67;;;;;;;11.84;93.76;100208.69;5096584;28;20106;-71
2022/10/02 01:24:58;;;;;;;18.55;14.32;;;;;;;11.86;93.99;100204.00;5115453;28;20422;-72
2022/10/02 01:27:24;;;;;;;20.05;14.32;;;;;;;11.92;93.69;100197.19;5114919;28;20028;-72
2022/10/02 01:30:09;;;;;;;22.08;15.63;;;;;;;11.91;93.35;100196.31;5115114;28;20032;-72
2022/10/02 01:32:40;;;;;;;22.15;16.50;;;;;;;11.91;93.98;100200.88;5096191;28;20077;-70
2022/10/02 01:35:06;;;;;;;22.17;16.85;;;;;;;11.91;94.41;100200.88;5114667;28;20023;-72
2022/10/02 01:37:34;;;;;;;21.50;16.17;;;;;;;11.90;94.11;100200.03;5114491;28;20047;-73
2022/10/02 01:40:06;;;;;;;24.77;18.52;;;;;;;11.91;93.73;100198.16;5096139;28;20101;-72
2022/10/02 01:42:33;;;;;;;22.52;18.13;;;;;;;11.86;94.24;100195.06;5095628;28;20031;-72
2022/10/02 01:44:59;;;;;;;22.77;15.85;;;;;;;11.79;94.15;100188.59;5114478;28;20089;-74
2022/10/02 01:47:47;;;;;;;23.65;18.23;;;;;;;11.77;94.28;100198.63;5114389;28;20032;-71
2022/10/02 01:50:38;;;;;;;32.38;19.75;;;;;;;11.70;94.44;100199.16;5082473;28;20043;-73
2022/10/02 01:53:18;;;;;;;27.90;20.75;;;;;;;11.65;94.97;100196.06;5114043;28;20568;-71
2022/10/02 01:55:56;;;;;;;28.05;22.05;;;;;;;11.63;95.48;100203.44;5095760;28;20042;-71
2022/10/02 01:58:59;;;;;;;28.60;19.98;;;;;;;11.61;95.29;100200.06;5095947;28;20097;-72
2022/10/02 02:01:32;;;;;;;28.27;21.85;;;;;;;11.55;95.76;100203.28;5122167;28;20032;-71
2022/10/02 02:04:24;;;;;;;24.67;20.70;;;;;;;11.54;96.35;100198.91;5123423;28;20474;-72
2022/10/02 02:06:53;;;;;;;25.35;19.33;;;;;;;11.59;96.02;100201.16;5096562;28;20028;-73
2022/10/02 02:09:42;;;;;;;23.75;18.90;;;;;;;11.57;95.67;100198.59;5095732;28;20042;-72
2022/10/02 02:13:03;;;;;;;28.63;20.67;;;;;;;11.55;96.04;100194.38;5113792;28;20228;-72
2022/10/02 02:15:41;;;;;;;25.33;19.15;;;;;;;11.55;96.04;100195.22;4984256;28;20402;-70
2022/10/02 02:18:17;;;;;;;32.53;19.77;;;;;;;11.59;96.50;100191.28;5113618;28;20444;-70
2022/10/02 02:20:49;;;;;;;23.45;19.88;;;;;;;11.63;96.45;100198.06;5113656;28;20027;-72
2022/10/02 02:23:19;;;;;;;27.40;20.67;;;;;;;11.64;96.07;100201.59;5095277;28;20126;-73
2022/10/02 02:25:49;;;;;;;25.35;20.15;;;;;;;11.66;96.45;100192.38;5095401;28;20035;-72
2022/10/02 02:28:19;;;;;;;26.40;19.75;;;;;;;11.71;96.54;100194.63;5113740;28;20417;-70
2022/10/02 02:30:49;;;;;;;27.48;20.40;;;;;;;11.69;96.40;100192.09;5113586;28;20035;-70
2022/10/02 02:33:29;;;;;;;23.23;17.52;;;;;;;11.80;95.95;100199.19;5095059;28;20032;-72
2022/10/02 02:36:00;;;;;;;27.70;20.73;;;;;;;11.80;95.96;100199.19;5113492;28;20032;-71
2022/10/02 02:38:32;;;;;;;21.02;17.77;;;;;;;11.83;95.69;100198.06;5094934;28;20034;-71
2022/10/02 02:41:03;;;;;;;22.08;18.80;;;;;;;11.80;95.42;100196.50;5113268;28;20144;-71
2022/10/02 02:43:45;;;;;;;21.80;18.83;;;;;;;11.83;95.15;100203.44;5113211;28;20053;-71
2022/10/02 02:47:02;;;;;;;20.30;16.00;;;;;;;11.83;93.47;100198.91;5094984;28;20027;-71
2022/10/02 02:49:24;;;;;;;19.40;14.32;;;;;;;11.87;92.93;100204.84;5113092;28;20040;-71
2022/10/02 02:51:52;;;;;;;19.17;14.45;;;;;;;11.88;91.50;100195.78;5113330;28;20480;-71
2022/10/02 02:54:27;;;;;;;20.27;15.25;;;;;;;11.91;91.84;100200.88;5094640;28;20048;-71
2022/10/02 02:56:57;;;;;;;20.02;16.38;;;;;;;11.97;92.08;100197.59;5113304;28;20092;-72
2022/10/02 02:59:28;;;;;;;17.77;14.30;;;;;;;12.00;91.90;100200.84;5094459;28;20118;-72
2022/10/02 03:01:53;;;;;;;20.48;16.55;;;;;;;12.03;92.31;100197.03;5113452;28;20055;-72
2022/10/02 03:04:20;;;;;;;24.73;17.85;;;;;;;12.01;92.41;100190.94;5094852;28;20067;-73
2022/10/02 03:06:50;;;;;;;18.70;16.60;;;;;;;12.08;92.52;100205.50;5112955;28;20036;-72
2022/10/02 03:09:19;;;;;;;21.70;15.88;;;;;;;12.11;92.23;100199.84;5113045;28;20032;-71
2022/10/02 03:12:11;;;;;;;24.85;18.40;;;;;;;12.04;92.31;100201.41;5112584;28;20042;-71
2022/10/02 03:14:44;;;;;;;18.98;15.68;;;;;;;12.09;92.20;100203.66;5094560;28;20480;-72
2022/10/02 03:17:31;;;;;;;19.67;16.65;;;;;;;12.06;92.77;100199.41;5094227;28;20035;-72
2022/10/02 03:20:06;;;;;;;20.88;18.17;;;;;;;12.02;93.02;100200.72;5112558;28;20442;-70
2022/10/02 03:22:45;;;;;;;21.85;17.52;;;;;;;12.04;92.88;100201.41;5094423;28;20435;-73
2022/10/02 03:25:43;;;;;;;29.45;21.55;;;;;;;11.82;96.15;100207.13;5094009;28;20482;-72
2022/10/02 03:28:18;;;;;;;36.90;25.15;;;;;;;11.47;100.00;100197.78;5090142;28;20509;-67
2022/10/02 03:30:45;;;;;;;36.58;25.85;;;;;;;11.42;100.00;100197.34;5094408;28;20380;-70
2022/10/02 03:33:15;;;;;;;33.15;25.45;;;;;;;11.45;100.00;100199.78;5112157;28;20425;-69
2022/10/02 03:35:42;;;;;;;34.67;24.50;;;;;;;11.41;100.00;100192.94;5112460;28;20030;-70
2022/10/02 03:38:12;;;;;;;33.42;25.40;;;;;;;11.42;100.00;100190.16;5093968;28;20454;-71
2022/10/02 03:40:38;;;;;;;34.28;24.85;;;;;;;11.39;100.00;100185.00;5112531;28;20381;-73
2022/10/02 03:43:03;;;;;;;37.40;27.83;;;;;;;11.38;100.00;100183.31;5112123;28;20118;-73
2022/10/02 03:45:29;;;;;;;35.70;26.25;;;;;;;11.35;100.00;100182.75;5112717;28;20035;-72
2022/10/02 03:47:55;;;;;;;35.55;26.88;;;;;;;11.35;100.00;100189.00;5094218;28;20042;-74
2022/10/02 03:50:21;;;;;;;35.53;26.85;;;;;;;11.36;100.00;100190.69;5112363;28;20032;-72
2022/10/02 03:52:52;;;;;;;36.08;27.00;;;;;;;11.37;100.00;100186.16;5094185;28;20126;-72
2022/10/02 03:55:17;;;;;;;34.60;26.40;;;;;;;11.38;100.00;100191.41;5093528;28;20116;-72
2022/10/02 03:57:45;;;;;;;37.65;28.98;;;;;;;11.39;100.00;100194.94;5094166;28;20464;-71
2022/10/02 04:00:18;;;;;;;37.55;26.30;;;;;;;11.36;100.00;100190.69;5094106;28;20035;-71
2022/10/02 04:02:57;;;;;;;34.20;25.88;;;;;;;11.38;100.00;100190.53;5112391;28;20028;-73
2022/10/02 04:05:40;;;;;;;36.72;26.90;;;;;;;11.34;100.00;100192.69;5096046;28;20567;-71
2022/10/02 04:08:17;;;;;;;45.40;29.65;;;;;;;11.33;100.00;100195.50;5115935;28;20476;-71
2022/10/02 04:11:05;;;;;;;38.72;28.17;;;;;;;11.31;100.00;100186.72;5097942;28;20081;-71
2022/10/02 04:13:54;;;;;;;37.50;27.60;;;;;;;11.30;100.00;100187.72;5116128;28;20476;-71
2022/10/02 04:16:32;;;;;;;35.85;26.83;;;;;;;11.36;100.00;100189.84;5115931;28;20023;-70
2022/10/02 04:19:39;;;;;;;30.48;25.05;;;;;;;11.32;100.00;100191.97;5115879;28;20031;-72
2022/10/02 04:22:14;;;;;;;34.50;25.88;;;;;;;11.28;100.00;100187.88;5096847;28;20105;-73
2022/10/02 04:24:49;;;;;;;32.42;24.80;;;;;;;11.30;100.00;100196.66;5115856;28;20483;-71
2022/10/02 04:27:20;;;;;;;29.90;24.33;;;;;;;11.29;100.00;100196.78;5097512;28;20023;-73
2022/10/02 04:29:57;;;;;;;36.50;26.13;;;;;;;11.27;100.00;100190.72;5115735;28;20032;-73
2022/10/02 04:32:29;;;;;;;31.98;24.50;;;;;;;11.29;100.00;100199.47;5097626;28;20034;-72
2022/10/02 04:34:56;;;;;;;31.80;24.55;;;;;;;11.29;100.00;100196.78;5115648;28;20032;-72
2022/10/02 04:37:34;;;;;;;30.30;25.02;;;;;;;11.29;100.00;100204.88;5115641;28;20425;-73
2022/10/02 04:40:23;;;;;;;28.80;22.92;;;;;;;11.30;100.00;100209.25;5097804;28;20050;-74
2022/10/02 04:42:54;;;;;;;25.15;19.73;;;;;;;11.33;100.00;100206.28;5097122;28;20035;-73
2022/10/02 04:45:42;;;;;;;25.23;19.42;;;;;;;11.31;100.00;100203.72;5115613;28;20484;-73
2022/10/02 04:48:10;;;;;;;29.33;20.77;;;;;;;11.32;100.00;100210.81;5097254;28;20391;-71
2022/10/02 04:50:51;;;;;;;28.80;22.67;;;;;;;11.28;100.00;100197.78;5097181;28;20031;-70
2022/10/02 04:53:16;;;;;;;20.52;18.17;;;;;;;11.23;100.00;100195.50;5096695;28;20027;-73
2022/10/02 04:56:01;;;;;;;23.05;17.45;;;;;;;11.07;100.00;100190.66;5096922;28;20034;-73
2022/10/02 04:58:33;;;;;;;19.35;17.35;;;;;;;11.00;100.00;100197.59;5115227;28;20028;-71
2022/10/02 05:01:33;;;;;;;18.08;14.13;;;;;;;10.94;100.00;100195.47;5115011;28;20027;-71
2022/10/02 05:04:39;;;;;;;14.10;10.23;;;;;;;10.90;100.00;100190.50;4996019;28;20029;-72
2022/10/02 05:07:29;;;;;;;15.60;13.43;;;;;;;10.79;100.00;100202.22;5096598;28;20043;-72
2022/10/02 05:10:23;;;;;;;13.70;10.55;;;;;;;10.72;100.00;100201.06;5096881;28;20126;-73
2022/10/02 05:13:12;;;;;;;14.90;10.85;;;;;;;10.72;100.00;100201.91;5096921;28;20119;-74
2022/10/02 05:15:46;;;;;;;12.00;10.07;;;;;;;10.65;100.00;100199.94;5096020;28;20050;-72
2022/10/02 05:18:24;;;;;;;10.95;9.73;;;;;;;10.67;100.00;100198.78;5114399;28;20032;-73
2022/10/02 05:20:52;;;;;;;13.80;10.85;;;;;;;10.66;100.00;100202.47;5096630;28;20036;-73
2022/10/02 05:23:39;;;;;;;14.15;10.55;;;;;;;10.70;100.00;100203.03;5114643;28;20403;-72
2022/10/02 05:26:15;;;;;;;15.10;12.15;;;;;;;10.63;100.00;100201.91;5096554;28;20468;-72
2022/10/02 05:29:18;;;;;;;15.18;9.95;;;;;;;10.69;100.00;100195.97;5096441;28;20132;-73
2022/10/02 05:31:53;;;;;;;19.02;10.50;;;;;;;10.67;100.00;100208.69;5114693;28;20038;-73
2022/10/02 05:34:44;;;;;;;14.95;11.13;;;;;;;10.71;100.00;100199.38;5096520;28;20480;-74
2022/10/02 05:37:15;;;;;;;14.48;10.05;;;;;;;10.72;100.00;100201.06;5114212;28;20472;-73
2022/10/02 05:40:16;;;;;;;19.70;10.43;;;;;;;10.75;100.00;100200.78;5114265;28;20127;-73
2022/10/02 05:43:11;;;;;;;14.77;10.07;;;;;;;10.76;100.00;100207.91;5114524;28;20031;-72
2022/10/02 05:45:42;;;;;;;15.82;9.60;;;;;;;10.81;100.00;100211.00;5109557;28;20046;-72
2022/10/02 05:48:22;;;;;;;17.42;11.73;;;;;;;10.81;100.00;100216.38;5114475;28;20038;-74
2022/10/02 05:50:54;;;;;;;12.95;11.57;;;;;;;10.77;100.00;100215.81;5096163;28;20488;-74
2022/10/02 05:53:35;;;;;;;17.20;11.35;;;;;;;10.82;100.00;100212.72;5095364;28;20388;-72
2022/10/02 05:56:08;;;;;;;12.25;9.90;;;;;;;10.89;100.00;100205.78;5095863;28;20078;-72
2022/10/02 05:58:46;;;;;;;16.38;12.45;;;;;;;10.85;100.00;100215.13;5095449;28;20700;-74
2022/10/02 06:01:26;;;;;;;14.50;12.70;;;;;;;10.99;100.00;100209.34;5095573;28;20438;-73
2022/10/02 06:04:16;;;;;;;21.73;14.90;;;;;;;11.03;100.00;100210.78;5095647;28;20123;-72
2022/10/02 06:06:53;;;;;;;16.70;13.77;;;;;;;11.13;100.00;100214.34;5095599;28;20067;-71
2022/10/02 06:09:21;;;;;;;22.48;16.50;;;;;;;11.15;100.00;100215.03;5095383;28;20043;-70
2022/10/02 06:11:53;;;;;;;18.55;15.15;;;;;;;11.22;100.00;100215.31;5113903;28;20086;-72
2022/10/02 06:14:29;;;;;;;18.25;14.93;;;;;;;11.27;100.00;100223.00;5113668;28;20024;-70
2022/10/02 06:17:16;;;;;;;22.25;17.08;;;;;;;11.30;100.00;100211.94;5095371;28;20090;-72
2022/10/02 06:19:52;;;;;;;24.50;17.63;;;;;;;11.32;100.00;100220.72;5095438;28;20392;-71
2022/10/02 06:22:22;;;;;;;29.67;18.52;;;;;;;11.37;100.00;100224.69;5113606;28;20035;-73
2022/10/02 06:24:54;;;;;;;20.58;16.98;;;;;;;11.37;100.00;100224.69;5113583;28;20035;-72
2022/10/02 06:27:38;;;;;;;20.48;17.20;;;;;;;11.45;100.00;100232.06;5113072;28;20068;-73
2022/10/02 06:30:07;;;;;;;23.70;17.90;;;;;;;11.43;100.00;100234.91;5114083;28;20106;-71
2022/10/02 06:32:44;;;;;;;23.55;17.67;;;;;;;11.40;100.00;100237.00;5095512;28;20058;-70
2022/10/02 06:35:14;;;;;;;28.20;16.13;;;;;;;11.13;100.00;100243.94;5114068;28;20035;-72
2022/10/02 06:38:01;;;;;;;7.40;5.10;;;;;;;10.75;100.00;100228.56;5114586;28;20449;-72
2022/10/02 06:40:50;;;;;;;7.25;5.20;;;;;;;10.42;100.00;100243.13;5095077;28;20583;-70
2022/10/02 06:43:53;;;;;;;7.57;5.70;;;;;;;10.32;100.00;100242.22;5094702;28;20396;-69
2022/10/02 06:46:21;;;;;;;8.90;6.45;;;;;;;10.17;100.00;100248.91;5094560;28;20039;-71
2022/10/02 06:48:59;;;;;;;17.05;8.82;;;;;;;10.00;100.00;100247.66;5113111;28;20342;-71
2022/10/02 06:51:50;;;;;;;19.15;11.45;;;;;;;10.05;100.00;100258.00;5094257;28;20200;-66
2022/10/02 06:54:36;;;;;;;12.57;6.90;;;;;;;9.98;100.00;100252.31;5112529;28;20050;-66
2022/10/02 06:57:32;;;;;;;16.05;7.88;;;;;;;9.86;100.00;100240.78;5094412;28;20031;-67
2022/10/02 07:00:13;;;;;;;10.25;7.40;;;;;;;-142.37;100.00;59669.53;5094821;28;20032;-59
2022/10/02 07:03:15;;;;;;;20.00;11.25;;;;;;;-142.37;100.00;59669.53;5112839;28;20032;-59
2022/10/02 07:06:05;;;;;;;31.73;16.20;;;;;;;-142.37;100.00;59669.53;5112813;28;20024;-59
2022/10/02 07:09:01;;;;;;;18.73;11.73;;;;;;;-142.37;100.00;59669.53;5094427;28;20480;-62
2022/10/02 07:11:27;;;;;;;;;;;;;;;-142.37;100.00;59669.53;5113068;28;20078;-59
2022/10/02 07:13:58;;;;;;;0.32;0.32;;;;;;;-142.37;100.00;59669.53;5094452;28;19951;-59
2022/10/02 07:16:48;;;;;;;0.60;0.60;;;;;;;-142.37;100.00;59669.53;5112683;28;20499;-59
2022/10/02 07:19:24;;;;;;;0.00;0.00;;;;;;;-142.37;100.00;59669.53;5094104;28;20034;-57
2022/10/02 07:22:13;;;;;;;0.10;0.10;;;;;;;-142.37;100.00;59669.53;5094469;28;20388;-58
2022/10/02 07:25:14;;;;;;;0.13;0.13;;;;;;;-142.37;100.00;59669.53;5094400;28;20028;-59
2022/10/02 07:27:50;;;;;;;0.17;0.17;;;;;;;-142.37;100.00;59669.53;5094317;28;20027;-59
2022/10/02 07:30:17;;;;;;;0.05;0.05;;;;;;;-142.37;100.00;59669.53;5112456;28;20464;-58
2022/10/02 07:32:56;;;;;;;0.20;0.15;;;;;;;-142.37;100.00;59669.53;5094220;28;20024;-58
2022/10/02 07:35:33;;;;;;;0.30;0.30;;;;;;;-142.37;100.00;59669.53;5094039;28;20433;-58
2022/10/02 07:38:14;;;;;;;0.20;0.20;;;;;;;-142.37;100.00;59669.53;5112187;28;20036;-59
2022/10/02 07:40:51;;;;;;;0.90;0.90;;;;;;;-142.37;100.00;59669.53;5114418;28;20103;-59
2022/10/02 07:43:52;;;;;;;0.40;0.40;;;;;;;-142.37;100.00;59669.53;5097964;28;20094;-59
2022/10/02 07:46:27;;;;;;;1.65;0.70;;;;;;;-142.37;100.00;59669.53;5116394;28;20031;-60
2022/10/02 07:49:18;;;;;;;0.32;0.32;;;;;;;-142.37;100.00;59669.53;5097796;28;20467;-61
2022/10/02 07:51:59;;;;;;;0.28;0.28;;;;;;;-142.37;100.00;59669.53;5097938;28;20028;-59
2022/10/02 07:54:31;;;;;;;1.88;0.63;;;;;;;-142.37;100.00;59669.53;5115889;28;20448;-60
2022/10/02 07:57:18;;;;;;;0.55;0.43;;;;;;;-142.37;100.00;59669.53;5097411;28;20466;-60
2022/10/02 07:59:47;;;;;;;0.57;0.35;;;;;;;-142.37;100.00;59669.53;5116250;28;20027;-59
2022/10/02 08:02:45;;;;;;;3.17;0.77;;;;;;;-142.37;100.00;59669.53;5116305;28;20119;-58
2022/10/02 08:05:25;;;;;;;0.20;0.20;;;;;;;-142.37;100.00;59669.53;5114911;28;20052;-60
2022/10/02 08:08:05;;;;;;;1.15;1.05;;;;;;;-142.37;100.00;59669.53;5116622;28;20035;-60
2022/10/02 08:10:37;;;;;;;0.63;0.60;;;;;;;-142.37;100.00;59669.53;5115876;28;20107;-60
2022/10/02 08:13:30;;;;;;;0.40;0.40;;;;;;;-142.37;100.00;59669.53;5097097;28;20395;-59
2022/10/02 08:15:56;;;;;;;0.75;0.75;;;;;;;-142.37;100.00;59669.53;5097214;28;20035;-59
2022/10/02 08:18:24;;;;;;;0.65;0.50;;;;;;;-142.37;100.00;59669.53;5115879;28;20031;-58
2022/10/02 08:20:51;;;;;;;0.73;0.73;;;;;;;-142.37;100.00;59669.53;5115657;28;20027;-58
2022/10/02 08:23:22;;;;;;;2.38;1.50;;;;;;;-142.37;100.00;59669.53;5096814;28;20033;-58
2022/10/02 08:25:57;;;;;;;0.55;0.47;;;;;;;-142.37;100.00;59669.53;5115473;28;20041;-58
2022/10/02 08:28:25;;;;;;;;;;;;;;;-142.37;100.00;59669.53;5115785;28;20576;-57
2022/10/02 08:30:51;;;;;;;0.28;0.28;;;;;;;-142.37;100.00;59669.53;5115460;28;20329;-56
2022/10/02 08:33:19;;;;;;;1.23;0.65;;;;;;;-142.37;100.00;59669.53;5096853;28;20028;-58
2022/10/02 08:36:31;;;;;;;0.22;0.10;;;;;;;-142.37;100.00;59669.53;5115591;28;20038;-58
2022/10/02 08:39:19;;;;;;;0.60;0.55;;;;;;;-142.37;100.00;59669.53;4995755;28;20457;-59
2022/10/02 08:42:06;;;;;;;1.00;0.73;;;;;;;-142.37;100.00;59669.53;5115451;28;20023;-57
2022/10/02 08:45:03;;;;;;;0.70;0.70;;;;;;;-142.37;100.00;59669.53;5096337;28;20027;-58
2022/10/02 08:47:59;;;;;;;3.80;1.45;;;;;;;-142.37;100.00;59669.53;5115225;28;20110;-59
2022/10/02 08:50:54;;;;;;;1.98;0.47;;;;;;;-142.37;100.00;59669.53;5114592;28;20035;-59
2022/10/02 08:53:35;;;;;;;1.25;0.63;;;;;;;-142.37;100.00;59669.53;5114223;28;20034;-58
2022/10/02 08:56:16;;;;;;;1.45;1.17;;;;;;;-142.37;100.00;59669.53;5096813;28;20027;-58
2022/10/02 08:59:04;;;;;;;0.90;0.52;;;;;;;-142.37;100.00;59669.53;5096465;28;20123;-58
2022/10/02 09:02:08;;;;;;;0.60;0.60;;;;;;;-142.37;100.00;59669.53;5114207;28;20472;-60
2022/10/02 09:05:26;;;;;;;9.68;8.77;;;;;;;-142.37;100.00;59669.53;5096442;28;20035;-59
2022/10/02 09:08:07;;;;;;;9.68;8.77;;;;;;;-142.37;100.00;59669.53;5096242;28;20088;-62
2022/10/02 09:11:07;;;;;;;8.82;7.97;;;;;;;-142.37;100.00;59669.53;5114599;28;20039;-60
2022/10/02 09:14:04;;;;;;;10.00;9.00;;;;;;;-142.37;100.00;59669.53;5095809;28;20434;-61
2022/10/02 09:16:50;;;;;;;9.68;8.75;;;;;;;-142.37;100.00;59669.53;5095727;28;20030;-62
2022/10/02 09:20:05;;;;;;;13.20;12.13;;;;;;;-142.37;100.00;59669.53;5094936;28;20484;-62
2022/10/02 09:22:54;;;;;;;7.47;6.25;;;;;;;-142.37;100.00;59669.53;5096182;28;20035;-63
2022/10/02 09:25:22;;;;;;;7.40;6.68;;;;;;;-142.37;100.00;59669.53;5114510;28;20019;-63
2022/10/02 09:28:16;;;;;;;6.15;5.47;;;;;;;-142.37;100.00;59669.53;5095378;28;20059;-62
2022/10/02 09:30:51;;;;;;;10.35;6.57;;;;;;;-142.37;100.00;59669.53;5095949;28;20031;-63
2022/10/02 09:33:38;;;;;;;4.90;4.32;;;;;;;-142.37;100.00;59669.53;5113901;28;20028;-64
2022/10/02 09:36:35;;;;;;;6.22;4.47;;;;;;;-142.37;100.00;59669.53;5113987;28;20073;-64
2022/10/02 09:39:38;;;;;;;6.78;4.10;;;;;;;-142.37;100.00;59669.53;5113754;28;20488;-64
2022/10/02 09:42:31;;;;;;;5.60;4.72;;;;;;;-142.37;100.00;59669.53;5095528;28;20119;-64
2022/10/02 09:45:35;;;;;;;9.30;4.45;;;;;;;-142.37;100.00;59669.53;5113821;28;20041;-68
2022/10/02 09:48:19;;;;;;;5.82;4.35;;;;;;;-142.37;100.00;59669.53;5113068;28;20047;-66
2022/10/02 09:51:26;;;;;;;5.15;4.43;;;;;;;-142.37;100.00;59669.53;5113740;28;20364;-67
2022/10/02 09:53:59;;;;;;;4.65;3.60;;;;;;;-142.37;100.00;59669.53;5010783;28;20085;-68
2022/10/02 09:56:46;;;;;;;5.20;3.88;;;;;;;-142.37;100.00;59669.53;5011239;28;20544;-66
2022/10/02 09:59:36;;;;;;;10.30;4.90;;;;;;;-142.37;100.00;59669.53;5051769;28;20047;-69
2022/10/02 10:02:39;;;;;;;4.78;3.63;;;;;;;-142.37;100.00;59669.53;5070797;28;20043;-68
2022/10/02 10:05:43;;;;;;;8.23;4.85;;;;;;;-142.37;100.00;59669.53;5071540;28;20127;-68
2022/10/02 10:08:42;;;;;;;6.82;4.55;;;;;;;-142.37;100.00;59669.53;5060025;28;20043;-68
2022/10/02 10:11:15;;;;;;;5.15;3.78;;;;;;;-142.37;100.00;59669.53;5047243;28;20132;-68
2022/10/02 10:14:01;;;;;;;6.43;3.50;;;;;;;-142.37;100.00;59669.53;5072476;28;20032;-67
2022/10/02 10:16:55;;;;;;;4.40;3.90;;;;;;;-142.37;100.00;59669.53;5071990;28;20036;-68
2022/10/02 10:19:48;;;;;;;4.03;3.38;;;;;;;-142.37;100.00;59669.53;5071017;28;20028;-66
2022/10/02 10:22:31;;;;;;;5.13;4.63;;;;;;;-142.37;100.00;59669.53;5071974;28;20028;-69
2022/10/02 10:24:59;;;;;;;6.57;4.97;;;;;;;-142.37;100.00;59669.53;5071906;28;20028;-69
2022/10/02 10:27:53;;;;;;;5.88;5.28;;;;;;;-142.37;100.00;59669.53;5071077;28;20040;-68
2022/10/02 10:30:48;;;;;;;7.55;6.03;;;;;;;-142.37;100.00;59669.53;5072277;28;20058;-68
2022/10/02 10:33:33;;;;;;;11.52;6.15;;;;;;;-142.37;100.00;59669.53;5071951;28;20054;-69
2022/10/02 10:38:31;;;;;;;10.82;9.77;;;;;;;-142.37;100.00;59669.53;5070687;28;20041;-69
2022/10/02 10:39:20;;;;;;;20.15;16.90;;;;;;;-142.37;100.00;59669.53;5071538;28;20093;-61
2022/10/02 10:42:07;;;;;;;38.92;28.20;;;;;;;-142.37;100.00;59669.53;5072270;28;20107;-60
2022/10/02 10:44:51;;;;;;;60.65;39.85;;;;;;;-142.37;100.00;59669.53;5071313;28;20056;-54
2022/10/02 10:47:38;;;;;;;50.75;36.90;;;;;;;-142.37;100.00;59669.53;5070667;28;20024;-55
2022/10/02 10:50:34;;;;;;;47.22;33.30;;;;;;;-142.37;100.00;59669.53;5069755;28;20123;-55
2022/10/02 10:53:28;;;;;;;38.03;28.90;;;;;;;-142.37;100.00;59669.53;5071635;28;20043;-56
2022/10/02 10:56:18;;;;;;;34.83;25.92;;;;;;;-142.37;100.00;59669.53;5090155;28;20369;-56
2022/10/02 10:59:21;;;;;;;39.72;27.00;;;;;;;-142.37;100.00;59669.53;5090961;28;20036;-57
2022/10/02 11:02:25;;;;;;;28.80;20.77;;;;;;;-142.37;100.00;59669.53;5091031;28;20020;-56
2022/10/02 11:05:24;;;;;;;31.95;24.25;;;;;;;-142.37;100.00;59669.53;5090379;28;20067;-55
2022/10/02 11:08:23;;;;;;;31.40;23.15;;;;;;;-142.37;100.00;59669.53;5090577;28;20028;-55
2022/10/02 11:11:12;;;;;;;34.60;27.60;;;;;;;-142.37;100.00;59669.53;5091728;28;20032;-57
2022/10/02 11:14:04;;;;;;;67.30;35.25;;;;;;;-142.37;100.00;59669.53;5090507;28;20115;-56
2022/10/02 11:16:55;;;;;;;61.70;36.58;;;;;;;-142.37;100.00;59669.53;5091753;28;20024;-55
2022/10/02 11:19:59;;;;;;;40.92;26.58;;;;;;;-142.37;100.00;59669.53;5090358;28;20060;-57
2022/10/02 11:23:12;;;;;;;49.97;29.35;;;;;;;-142.37;100.00;59669.53;5008945;28;20136;-56
2022/10/02 11:26:02;;;;;;;37.47;24.17;;;;;;;-142.37;100.00;59669.53;4931928;29;20148;-56
2022/10/02 11:28:59;;;;;;;34.67;22.38;;;;;;;-142.37;100.00;59669.53;5083145;28;20036;-56
2022/10/02 11:32:02;;;;;;;31.17;19.55;;;;;;;-142.37;100.00;59669.53;5089667;28;20028;-57
2022/10/02 11:34:51;;;;;;;26.08;17.98;;;;;;;-142.37;100.00;59669.53;5092122;28;20476;-57
2022/10/02 11:37:26;;;;;;;24.23;16.40;;;;;;;-142.37;100.00;59669.53;5091162;28;20043;-58
2022/10/02 11:40:15;;;;;;;21.60;16.05;;;;;;;-142.37;100.00;59669.53;5090146;28;20032;-57
2022/10/02 11:43:21;;;;;;;13.35;10.40;;;;;;;-142.37;100.00;59669.53;5091620;28;20081;-58
2022/10/02 11:46:11;;;;;;;11.45;9.07;;;;;;;-142.37;100.00;59669.53;5091135;28;20031;-58
2022/10/02 11:48:52;;;;;;;10.18;7.47;;;;;;;-142.37;100.00;59669.53;5091786;28;20148;-59
2022/10/02 11:51:36;;;;;;;6.93;6.20;;;;;;;-142.37;100.00;59669.53;5091569;28;20028;-57
2022/10/02 11:54:14;;;;;;;8.85;6.75;;;;;;;-142.37;100.00;59669.53;5083775;28;20106;-61
2022/10/02 11:57:01;;;;;;;7.15;5.82;;;;;;;-142.37;100.00;59669.53;5069561;28;20463;-58
2022/10/02 11:59:35;;;;;;;9.98;7.55;;;;;;;-142.37;100.00;59669.53;5069887;28;20103;-57
2022/10/02 12:02:24;;;;;;;9.70;7.22;;;;;;;-142.37;100.00;59669.53;5071098;28;20025;-60
2022/10/02 12:05:12;;;;;;;7.15;6.20;;;;;;;-142.37;100.00;59669.53;5071309;28;20507;-60
2022/10/02 12:07:57;;;;;;;6.38;5.32;;;;;;;-142.37;100.00;59669.53;5069728;28;20489;-59
2022/10/02 12:10:51;;;;;;;7.55;6.45;;;;;;;-142.37;100.00;59669.53;5069563;28;20090;-59
2022/10/02 12:13:30;;;;;;;7.45;6.28;;;;;;;-142.37;100.00;59669.53;5070866;28;20036;-60